sensor_id;sensor_type;location;lat;lon;timestamp;P1;P2;P0
73832;PMS7003;62179;48.444;-4.464;2023-03-17T02:04:22;10.00;8.00;5.50
73832;PMS7003;62179;48.444;-4.464;2023-03-17T02:06:48;6.75;6.25;4.25
73832;PMS7003;62179;48.444;-4.464;2023-03-17T02:09:14;6.75;5.50;4.50
73832;PMS7003;62179;48.444;-4.464;2023-03-17T02:11:40;8.25;7.75;4.75
73832;PMS7003;62179;48.444;-4.464;2023-03-17T02:14:06;10.67;7.33;4.33
73832;PMS7003;62179;48.444;-4.464;2023-03-17T02:16:31;6.00;6.00;3.25
73832;PMS7003;62179;48.444;-4.464;2023-03-17T02:18:57;8.50;8.00;5.00
73832;PMS7003;62179;48.444;-4.464;2023-03-17T02:24:04;11.75;9.00;5.75
73832;PMS7003;62179;48.444;-4.464;2023-03-17T02:26:32;8.00;7.25;5.25
73832;PMS7003;62179;48.444;-4.464;2023-03-17T02:29:01;8.25;7.50;4.25
73832;PMS7003;62179;48.444;-4.464;2023-03-17T02:31:27;8.75;5.50;4.25
73832;PMS7003;62179;48.444;-4.464;2023-03-17T02:33:55;9.50;7.50;5.00
73832;PMS7003;62179;48.444;-4.464;2023-03-17T02:36:21;11.50;8.75;6.00
73832;PMS7003;62179;48.444;-4.464;2023-03-17T02:38:46;9.75;9.00;5.25
73832;PMS7003;62179;48.444;-4.464;2023-03-17T02:41:14;12.00;9.00;5.00
73832;PMS7003;62179;48.444;-4.464;2023-03-17T02:43:40;10.00;7.50;5.00
73832;PMS7003;62179;48.444;-4.464;2023-03-17T02:46:06;11.25;10.00;5.00
73832;PMS7003;62179;48.444;-4.464;2023-03-17T02:48:39;10.00;9.25;5.00
73832;PMS7003;62179;48.444;-4.464;2023-03-17T02:51:07;9.50;6.75;5.00
73832;PMS7003;62179;48.444;-4.464;2023-03-17T02:53:33;11.00;9.00;5.00
73832;PMS7003;62179;48.444;-4.464;2023-03-17T02:56:06;11.75;11.50;6.50
73832;PMS7003;62179;48.444;-4.464;2023-03-17T02:58:34;10.25;9.00;5.00
73832;PMS7003;62179;48.444;-4.464;2023-03-17T03:01:00;13.50;8.75;5.00
73832;PMS7003;62179;48.444;-4.464;2023-03-17T03:03:26;11.00;9.00;6.00
73832;PMS7003;62179;48.444;-4.464;2023-03-17T03:05:58;10.50;8.50;5.50
73832;PMS7003;62179;48.444;-4.464;2023-03-17T03:08:41;11.00;9.75;5.75
73832;PMS7003;62179;48.444;-4.464;2023-03-17T03:11:12;12.25;10.50;6.00
73832;PMS7003;62179;48.444;-4.464;2023-03-17T03:13:39;12.00;10.75;7.25
73832;PMS7003;62179;48.444;-4.464;2023-03-17T03:16:07;11.25;9.75;6.75
73832;PMS7003;62179;48.444;-4.464;2023-03-17T03:18:33;10.75;10.75;6.00
73832;PMS7003;62179;48.444;-4.464;2023-03-17T03:21:01;9.00;7.25;6.00
73832;PMS7003;62179;48.444;-4.464;2023-03-17T03:23:30;13.25;10.50;8.00
73832;PMS7003;62179;48.444;-4.464;2023-03-17T03:25:56;10.00;10.00;5.25
73832;PMS7003;62179;48.444;-4.464;2023-03-17T03:28:21;9.25;8.25;5.00
73832;PMS7003;62179;48.444;-4.464;2023-03-17T03:30:47;9.25;6.00;5.00
73832;PMS7003;62179;48.444;-4.464;2023-03-17T03:33:13;12.00;6.50;4.50
73832;PMS7003;62179;48.444;-4.464;2023-03-17T03:35:38;9.75;7.00;4.00
73832;PMS7003;62179;48.444;-4.464;2023-03-17T03:38:04;14.25;10.50;6.00
73832;PMS7003;62179;48.444;-4.464;2023-03-17T03:40:29;9.00;8.00;5.50
73832;PMS7003;62179;48.444;-4.464;2023-03-17T03:42:58;10.25;9.50;6.00
73832;PMS7003;62179;48.444;-4.464;2023-03-17T03:45:23;10.50;7.25;4.75
73832;PMS7003;62179;48.444;-4.464;2023-03-17T03:47:56;10.75;8.00;5.50
73832;PMS7003;62179;48.444;-4.464;2023-03-17T03:50:22;8.75;6.00;4.00
73832;PMS7003;62179;48.444;-4.464;2023-03-17T03:52:49;8.25;6.75;4.00
73832;PMS7003;62179;48.444;-4.464;2023-03-17T03:55:17;8.00;8.00;5.00
73832;PMS7003;62179;48.444;-4.464;2023-03-17T03:57:42;9.00;7.75;4.50
73832;PMS7003;62179;48.444;-4.464;2023-03-17T04:00:08;5.25;4.50;2.75
73832;PMS7003;62179;48.444;-4.464;2023-03-17T04:02:35;11.75;7.50;4.00
73832;PMS7003;62179;48.444;-4.464;2023-03-17T04:05:03;5.25;5.25;3.00
73832;PMS7003;62179;48.444;-4.464;2023-03-17T04:07:32;13.50;10.25;5.50
73832;PMS7003;62179;48.444;-4.464;2023-03-17T04:09:57;10.25;7.00;5.00
73832;PMS7003;62179;48.444;-4.464;2023-03-17T04:12:24;7.50;6.00;3.50
73832;PMS7003;62179;48.444;-4.464;2023-03-17T04:14:49;5.75;5.50;3.00
73832;PMS7003;62179;48.444;-4.464;2023-03-17T04:17:15;10.25;6.25;3.25
73832;PMS7003;62179;48.444;-4.464;2023-03-17T04:19:51;6.75;5.00;3.25
73832;PMS7003;62179;48.444;-4.464;2023-03-17T09:11:53;6.75;4.00;2.00
73832;PMS7003;62179;48.444;-4.464;2023-03-17T09:17:54;5.50;3.50;2.25
73832;PMS7003;62179;48.444;-4.464;2023-03-17T09:26:46;6.50;5.00;3.00
73832;PMS7003;62179;48.444;-4.464;2023-03-17T09:29:12;1.00;1.00;1.00
73832;PMS7003;62179;48.444;-4.464;2023-03-17T09:31:37;5.00;5.00;3.00
73832;PMS7003;62179;48.444;-4.464;2023-03-17T09:34:03;6.67;3.33;2.00
73832;PMS7003;62179;48.444;-4.464;2023-03-17T09:36:29;4.75;4.75;2.00
73832;PMS7003;62179;48.444;-4.464;2023-03-17T09:38:54;5.75;3.75;2.25
73832;PMS7003;62179;48.444;-4.464;2023-03-17T09:49:01;4.50;3.00;2.00
73832;PMS7003;62179;48.444;-4.464;2023-03-17T09:51:27;3.75;3.00;2.50
73832;PMS7003;62179;48.444;-4.464;2023-03-17T09:53:55;7.00;5.00;2.50
73832;PMS7003;62179;48.444;-4.464;2023-03-17T09:56:24;4.00;3.50;2.50
73832;PMS7003;62179;48.444;-4.464;2023-03-17T09:58:52;5.50;4.00;3.00
73832;PMS7003;62179;48.444;-4.464;2023-03-17T10:01:18;5.00;5.00;2.25
73832;PMS7003;62179;48.444;-4.464;2023-03-17T10:03:45;6.50;2.75;1.00
73832;PMS7003;62179;48.444;-4.464;2023-03-17T10:08:41;5.00;3.75;2.50
73832;PMS7003;62179;48.444;-4.464;2023-03-17T15:22:04;7.25;4.25;2.00
73832;PMS7003;62179;48.444;-4.464;2023-03-17T15:24:59;3.00;2.25;1.00
73832;PMS7003;62179;48.444;-4.464;2023-03-17T15:27:29;3.50;2.50;1.00
73832;PMS7003;62179;48.444;-4.464;2023-03-17T15:29:56;6.00;3.50;1.50
73832;PMS7003;62179;48.444;-4.464;2023-03-17T15:32:21;4.00;2.00;1.00
73832;PMS7003;62179;48.444;-4.464;2023-03-17T15:34:48;4.25;2.50;1.00
73832;PMS7003;62179;48.444;-4.464;2023-03-17T15:37:15;5.25;3.50;2.00
73832;PMS7003;62179;48.444;-4.464;2023-03-17T15:39:42;7.00;4.00;3.00
73832;PMS7003;62179;48.444;-4.464;2023-03-17T15:42:08;7.25;3.75;2.00
73832;PMS7003;62179;48.444;-4.464;2023-03-17T15:44:33;11.00;6.25;3.00
73832;PMS7003;62179;48.444;-4.464;2023-03-17T15:46:59;7.25;3.75;1.75
73832;PMS7003;62179;48.444;-4.464;2023-03-17T15:49:24;5.75;5.25;2.25
73832;PMS7003;62179;48.444;-4.464;2023-03-17T15:51:51;4.00;4.00;1.00
73832;PMS7003;62179;48.444;-4.464;2023-03-17T15:54:22;6.00;3.00;1.75
73832;PMS7003;62179;48.444;-4.464;2023-03-17T15:59:58;4.25;4.25;1.50
73832;PMS7003;62179;48.444;-4.464;2023-03-17T16:02:32;4.50;3.00;1.00
73832;PMS7003;62179;48.444;-4.464;2023-03-17T16:05:17;5.00;3.50;2.00
73832;PMS7003;62179;48.444;-4.464;2023-03-17T16:07:44;7.75;4.50;1.50
73832;PMS7003;62179;48.444;-4.464;2023-03-17T16:10:31;3.25;2.00;1.00
73832;PMS7003;62179;48.444;-4.464;2023-03-17T16:12:55;3.00;2.00;1.00
73832;PMS7003;62179;48.444;-4.464;2023-03-17T16:15:41;13.00;5.25;2.00
73832;PMS7003;62179;48.444;-4.464;2023-03-17T16:18:31;5.50;4.00;2.00
73832;PMS7003;62179;48.444;-4.464;2023-03-17T16:20:58;5.50;2.25;0.50
73832;PMS7003;62179;48.444;-4.464;2023-03-17T16:23:38;4.00;3.50;1.75
73832;PMS7003;62179;48.444;-4.464;2023-03-17T16:26:08;2.25;2.25;1.75
73832;PMS7003;62179;48.444;-4.464;2023-03-17T16:28:53;6.25;3.00;1.25
73832;PMS7003;62179;48.444;-4.464;2023-03-17T16:31:26;4.25;2.25;1.00
73832;PMS7003;62179;48.444;-4.464;2023-03-17T16:33:55;3.75;3.75;1.50
73832;PMS7003;62179;48.444;-4.464;2023-03-17T16:36:27;7.25;2.75;1.75
73832;PMS7003;62179;48.444;-4.464;2023-03-17T16:39:01;4.50;2.00;1.00
73832;PMS7003;62179;48.444;-4.464;2023-03-17T16:41:43;4.00;2.25;1.75
73832;PMS7003;62179;48.444;-4.464;2023-03-17T16:44:28;3.25;2.75;2.00
73832;PMS7003;62179;48.444;-4.464;2023-03-17T16:46:57;6.25;3.50;1.00
73832;PMS7003;62179;48.444;-4.464;2023-03-17T16:49:22;3.25;2.50;2.00
73832;PMS7003;62179;48.444;-4.464;2023-03-17T16:51:50;4.25;3.00;2.25
73832;PMS7003;62179;48.444;-4.464;2023-03-17T16:54:15;6.33;4.00;2.00
73832;PMS7003;62179;48.444;-4.464;2023-03-17T16:57:03;3.00;3.00;2.00
73832;PMS7003;62179;48.444;-4.464;2023-03-17T16:59:49;3.75;3.00;2.00
73832;PMS7003;62179;48.444;-4.464;2023-03-17T17:02:15;5.75;3.75;2.00
73832;PMS7003;62179;48.444;-4.464;2023-03-17T17:04:43;6.25;5.00;3.00
73832;PMS7003;62179;48.444;-4.464;2023-03-17T17:07:18;2.50;2.00;1.25
73832;PMS7003;62179;48.444;-4.464;2023-03-17T17:09:43;6.33;4.00;2.00
73832;PMS7003;62179;48.444;-4.464;2023-03-17T17:12:54;6.50;4.00;2.00
73832;PMS7003;62179;48.444;-4.464;2023-03-17T17:15:23;4.00;2.25;1.25
73832;PMS7003;62179;48.444;-4.464;2023-03-17T17:18:18;4.00;3.25;1.50
73832;PMS7003;62179;48.444;-4.464;2023-03-17T17:21:11;6.75;3.50;3.00
73832;PMS7003;62179;48.444;-4.464;2023-03-17T17:23:39;5.50;4.25;2.00
73832;PMS7003;62179;48.444;-4.464;2023-03-17T17:26:10;7.00;3.75;2.00
73832;PMS7003;62179;48.444;-4.464;2023-03-17T17:28:38;5.75;5.75;2.00
73832;PMS7003;62179;48.444;-4.464;2023-03-17T17:31:08;4.00;4.00;2.50
73832;PMS7003;62179;48.444;-4.464;2023-03-17T17:33:34;10.25;4.75;2.25
73832;PMS7003;62179;48.444;-4.464;2023-03-17T17:36:00;3.25;2.50;1.00
73832;PMS7003;62179;48.444;-4.464;2023-03-17T17:38:26;1.00;1.00;0.75
73832;PMS7003;62179;48.444;-4.464;2023-03-17T17:40:52;3.25;2.75;1.50
73832;PMS7003;62179;48.444;-4.464;2023-03-17T17:45:49;6.00;3.25;2.00
73832;PMS7003;62179;48.444;-4.464;2023-03-17T17:48:17;5.75;3.25;0.25
73832;PMS7003;62179;48.444;-4.464;2023-03-17T17:50:58;8.25;2.75;2.00
73832;PMS7003;62179;48.444;-4.464;2023-03-17T17:53:24;4.25;3.00;2.00
73832;PMS7003;62179;48.444;-4.464;2023-03-17T17:55:49;9.00;3.00;1.00
73832;PMS7003;62179;48.444;-4.464;2023-03-17T17:58:17;10.50;4.50;3.00
73832;PMS7003;62179;48.444;-4.464;2023-03-17T18:00:43;6.00;5.00;3.00
73832;PMS7003;62179;48.444;-4.464;2023-03-17T18:03:08;5.00;4.00;2.00
73832;PMS7003;62179;48.444;-4.464;2023-03-17T18:05:34;4.50;4.50;2.00
73832;PMS7003;62179;48.444;-4.464;2023-03-17T18:08:02;7.25;6.25;3.25
73832;PMS7003;62179;48.444;-4.464;2023-03-17T18:10:28;13.00;9.75;4.25
73832;PMS7003;62179;48.444;-4.464;2023-03-17T18:13:20;7.25;5.00;4.00
73832;PMS7003;62179;48.444;-4.464;2023-03-17T18:15:54;7.00;5.00;2.00
73832;PMS7003;62179;48.444;-4.464;2023-03-17T18:18:32;4.50;4.50;1.75
73832;PMS7003;62179;48.444;-4.464;2023-03-17T18:21:04;9.25;5.00;2.00
73832;PMS7003;62179;48.444;-4.464;2023-03-17T18:23:56;5.00;2.75;1.00
73832;PMS7003;62179;48.444;-4.464;2023-03-17T18:26:21;2.00;2.00;0.75
73832;PMS7003;62179;48.444;-4.464;2023-03-17T18:31:29;6.25;4.00;2.00
73832;PMS7003;62179;48.444;-4.464;2023-03-17T18:37:32;10.00;4.75;1.25
73832;PMS7003;62179;48.444;-4.464;2023-03-17T18:40:46;5.75;2.50;2.00
73832;PMS7003;62179;48.444;-4.464;2023-03-17T18:43:51;3.50;3.00;1.50
73832;PMS7003;62179;48.444;-4.464;2023-03-17T18:46:17;5.50;3.75;2.00
73832;PMS7003;62179;48.444;-4.464;2023-03-17T18:48:42;3.50;2.50;1.50
73832;PMS7003;62179;48.444;-4.464;2023-03-17T18:51:30;2.75;1.25;1.00
73832;PMS7003;62179;48.444;-4.464;2023-03-17T18:54:38;4.00;2.00;1.00
73832;PMS7003;62179;48.444;-4.464;2023-03-17T18:57:09;3.00;2.00;2.00
73832;PMS7003;62179;48.444;-4.464;2023-03-17T19:02:55;3.25;2.00;1.00
73832;PMS7003;62179;48.444;-4.464;2023-03-17T19:14:30;6.00;3.00;2.00
73832;PMS7003;62179;48.444;-4.464;2023-03-17T19:17:14;4.25;2.00;0.25
73832;PMS7003;62179;48.444;-4.464;2023-03-17T19:19:58;5.00;3.25;0.50
73832;PMS7003;62179;48.444;-4.464;2023-03-17T19:25:59;4.50;2.00;1.00
73832;PMS7003;62179;48.444;-4.464;2023-03-17T19:28:44;2.50;1.00;0.50
73832;PMS7003;62179;48.444;-4.464;2023-03-17T19:31:28;2.25;2.25;0.00
73832;PMS7003;62179;48.444;-4.464;2023-03-17T19:34:00;2.00;1.00;1.00
73832;PMS7003;62179;48.444;-4.464;2023-03-17T19:36:54;4.00;2.00;1.00
73832;PMS7003;62179;48.444;-4.464;2023-03-17T19:39:39;3.25;2.75;2.00
73832;PMS7003;62179;48.444;-4.464;2023-03-17T19:42:13;7.25;3.00;1.00
73832;PMS7003;62179;48.444;-4.464;2023-03-17T19:58:35;8.50;4.25;1.75
73832;PMS7003;62179;48.444;-4.464;2023-03-17T20:11:57;5.25;3.00;1.00
73832;PMS7003;62179;48.444;-4.464;2023-03-17T20:18:05;3.75;1.25;1.00
73832;PMS7003;62179;48.444;-4.464;2023-03-17T20:26:54;16.00;9.25;5.50
73832;PMS7003;62179;48.444;-4.464;2023-03-17T20:51:45;7.50;2.75;1.00
73832;PMS7003;62179;48.444;-4.464;2023-03-17T21:00:15;4.25;3.75;2.00
73832;PMS7003;62179;48.444;-4.464;2023-03-17T21:02:53;4.75;2.75;1.00
73832;PMS7003;62179;48.444;-4.464;2023-03-17T21:12:37;4.00;3.00;1.25
73832;PMS7003;62179;48.444;-4.464;2023-03-17T21:39:01;8.00;5.75;3.00
73832;PMS7003;62179;48.444;-4.464;2023-03-17T21:41:52;4.00;2.75;1.75
73832;PMS7003;62179;48.444;-4.464;2023-03-17T21:44:45;7.50;4.50;3.50
73832;PMS7003;62179;48.444;-4.464;2023-03-17T21:50:17;8.50;4.75;2.00
73832;PMS7003;62179;48.444;-4.464;2023-03-17T21:52:53;12.00;4.75;2.00
73832;PMS7003;62179;48.444;-4.464;2023-03-17T21:58:14;4.00;4.00;3.00
73832;PMS7003;62179;48.444;-4.464;2023-03-17T22:01:18;8.75;5.00;3.00
